createdAt,value
2024-03-06T00:00:10.033Z,7.30
2024-03-06T00:02:38.497Z,7.30
2024-03-06T00:05:10.156Z,7.30
2024-03-06T00:07:39.025Z,7.30
2024-03-06T00:10:07.880Z,7.30
2024-03-06T00:12:36.450Z,7.30
2024-03-06T00:15:05.148Z,7.30
2024-03-06T00:17:33.715Z,7.30
2024-03-06T00:20:02.196Z,7.20
2024-03-06T00:22:30.669Z,7.30
2024-03-06T00:24:59.047Z,7.30
2024-03-06T00:27:27.379Z,7.30
2024-03-06T00:29:55.770Z,7.30
2024-03-06T00:32:25.774Z,7.30
2024-03-06T00:34:54.186Z,7.30
2024-03-06T00:37:22.582Z,7.30
2024-03-06T00:39:50.992Z,7.30
2024-03-06T00:42:19.360Z,7.30
2024-03-06T00:44:48.223Z,7.30
2024-03-06T00:47:16.690Z,7.30
2024-03-06T00:49:45.125Z,7.30
2024-03-06T00:52:13.478Z,7.30
2024-03-06T00:54:41.903Z,7.30
2024-03-06T00:57:10.251Z,7.30
2024-03-06T00:59:38.628Z,7.40
2024-03-06T01:02:07.012Z,7.40
2024-03-06T01:04:35.400Z,7.40
2024-03-06T01:07:03.863Z,7.40
2024-03-06T01:09:32.262Z,7.40
2024-03-06T01:12:00.613Z,7.40
2024-03-06T01:14:28.970Z,7.40
2024-03-06T01:16:58.346Z,7.40
2024-03-06T01:19:26.716Z,7.40
2024-03-06T01:21:55.085Z,7.40
2024-03-06T01:24:23.439Z,7.50
2024-03-06T01:26:51.817Z,7.50
2024-03-06T01:29:20.406Z,7.40
2024-03-06T01:31:49.101Z,7.40
2024-03-06T01:34:17.481Z,7.40
2024-03-06T01:36:45.827Z,7.40
2024-03-06T01:39:14.599Z,7.40
2024-03-06T01:41:51.284Z,7.30
2024-03-06T01:44:20.897Z,7.30
2024-03-06T01:46:49.531Z,7.30
2024-03-06T01:49:28.262Z,7.30
2024-03-06T01:52:03.110Z,7.30
2024-03-06T01:54:33.557Z,7.30
2024-03-06T01:57:05.007Z,7.30
2024-03-06T01:59:37.189Z,7.30
2024-03-06T02:02:09.225Z,7.30
2024-03-06T02:04:37.686Z,7.30
2024-03-06T02:07:12.933Z,7.30
2024-03-06T02:09:42.135Z,7.30
2024-03-06T02:12:11.033Z,7.30
2024-03-06T02:14:39.777Z,7.30
2024-03-06T02:17:09.179Z,7.30
2024-03-06T02:19:43.379Z,7.30
2024-03-06T02:22:13.643Z,7.30
2024-03-06T02:24:50.540Z,7.30
2024-03-06T02:27:18.948Z,7.30
2024-03-06T02:29:47.426Z,7.30
2024-03-06T02:32:17.039Z,7.30
2024-03-06T02:34:45.453Z,7.30
2024-03-06T02:37:13.836Z,7.30
2024-03-06T02:39:42.257Z,7.30
2024-03-06T02:42:10.660Z,7.30
2024-03-06T02:44:39.031Z,7.20
2024-03-06T02:47:07.600Z,7.20
2024-03-06T02:49:36.111Z,7.20
2024-03-06T02:52:04.890Z,7.30
2024-03-06T02:54:33.236Z,7.20
2024-03-06T02:57:01.598Z,7.20
2024-03-06T02:59:30.037Z,7.20
2024-03-06T03:01:58.448Z,7.20
2024-03-06T03:04:27.389Z,7.20
2024-03-06T03:06:55.784Z,7.20
2024-03-06T03:09:24.133Z,7.20
2024-03-06T03:11:52.519Z,7.20
2024-03-06T03:14:20.902Z,7.20
2024-03-06T03:16:49.382Z,7.10
2024-03-06T03:19:18.599Z,7.10
2024-03-06T03:21:47.312Z,7.10
2024-03-06T03:24:15.660Z,7.10
2024-03-06T03:26:44.411Z,7.10
2024-03-06T03:29:12.903Z,7.10
2024-03-06T03:31:41.368Z,7.10
2024-03-06T03:34:11.098Z,7.10
2024-03-06T03:36:44.460Z,7.10
2024-03-06T03:39:19.944Z,7.10
2024-03-06T03:41:49.913Z,7.10
2024-03-06T03:44:21.303Z,7.10
2024-03-06T03:46:49.847Z,7.10
2024-03-06T03:49:18.625Z,7.10
2024-03-06T03:51:48.021Z,7.10
2024-03-06T03:54:16.430Z,7.10
2024-03-06T03:56:44.829Z,7.10
2024-03-06T03:59:13.204Z,7.10
2024-03-06T04:01:42.158Z,7.10
2024-03-06T04:04:10.498Z,7.10
2024-03-06T04:06:39.103Z,7.20
2024-03-06T04:09:07.441Z,7.20
2024-03-06T04:11:37.006Z,7.20
2024-03-06T04:14:11.363Z,7.20
2024-03-06T04:16:40.555Z,7.30
2024-03-06T04:19:08.894Z,7.30
2024-03-06T04:21:37.318Z,7.30
2024-03-06T04:24:06.033Z,7.30
2024-03-06T04:26:34.407Z,7.30
2024-03-06T04:29:02.786Z,7.30
2024-03-06T04:31:31.655Z,7.30
2024-03-06T04:33:59.986Z,7.30
2024-03-06T04:36:28.327Z,7.20
2024-03-06T04:38:56.673Z,7.20
2024-03-06T04:41:25.939Z,7.20
2024-03-06T04:43:54.964Z,7.10
2024-03-06T04:46:23.342Z,7.10
2024-03-06T04:48:52.067Z,7.00
2024-03-06T04:51:23.099Z,7.00
2024-03-06T04:53:51.601Z,6.90
2024-03-06T04:56:21.344Z,6.90
2024-03-06T04:58:50.074Z,6.80
2024-03-06T05:01:18.444Z,6.80
2024-03-06T06:00:24.154Z,6.60
2024-03-06T06:02:52.514Z,6.60
2024-03-06T06:05:23.895Z,6.50
2024-03-06T06:07:53.497Z,6.50
2024-03-06T06:10:22.799Z,6.50
2024-03-06T06:12:51.865Z,6.50
2024-03-06T06:15:20.222Z,6.50
2024-03-06T06:17:48.795Z,6.50
2024-03-06T06:20:18.231Z,6.50
2024-03-06T06:22:47.155Z,6.50
2024-03-06T06:25:15.963Z,6.50
2024-03-06T06:27:44.330Z,6.50
2024-03-06T06:30:15.824Z,6.50
2024-03-06T06:32:45.515Z,6.50
2024-03-06T06:35:15.680Z,6.50
2024-03-06T06:37:44.274Z,6.50
2024-03-06T06:40:15.234Z,6.50
2024-03-06T06:42:51.931Z,6.50
2024-03-06T06:45:26.849Z,6.50
2024-03-06T06:47:55.876Z,6.50
2024-03-06T06:50:26.487Z,6.50
2024-03-06T06:52:55.311Z,6.50
2024-03-06T06:55:25.287Z,6.50
2024-03-06T06:57:53.760Z,6.50
2024-03-06T07:00:24.966Z,6.50
2024-03-06T07:02:53.425Z,6.50
2024-03-06T07:05:22.000Z,6.50
2024-03-06T07:07:53.123Z,6.60
2024-03-06T07:10:24.119Z,6.60
2024-03-06T07:12:52.885Z,6.70
2024-03-06T07:15:21.562Z,6.70
2024-03-06T07:17:53.204Z,6.70
2024-03-06T07:20:21.831Z,6.70
2024-03-06T07:22:50.305Z,6.80
2024-03-06T07:25:18.827Z,6.80
2024-03-06T07:27:48.780Z,6.80
2024-03-06T07:30:20.006Z,6.70
2024-03-06T07:32:48.544Z,6.80
2024-03-06T07:35:17.429Z,6.80
2024-03-06T07:38:06.467Z,6.80
2024-03-06T07:40:34.923Z,6.80
2024-03-06T07:43:03.274Z,6.80
2024-03-06T07:45:31.837Z,6.80
2024-03-06T07:48:00.282Z,6.80
2024-03-06T07:50:29.687Z,6.80
2024-03-06T07:52:58.147Z,6.80
2024-03-06T07:55:26.510Z,6.80
2024-03-06T07:57:54.905Z,6.80
2024-03-06T08:00:24.411Z,6.80
2024-03-06T08:02:53.424Z,6.80
2024-03-06T08:05:23.443Z,6.80
2024-03-06T08:07:52.298Z,6.80
2024-03-06T08:10:21.059Z,6.80
2024-03-06T08:12:52.328Z,6.80
2024-03-06T08:15:20.684Z,6.80
2024-03-06T08:17:51.935Z,6.90
2024-03-06T08:20:20.524Z,6.90
2024-03-06T08:22:49.047Z,7.00
2024-03-06T08:25:17.516Z,7.00
2024-03-06T08:27:53.077Z,7.10
2024-03-06T08:30:29.009Z,7.10
2024-03-06T08:33:09.674Z,7.10
2024-03-06T08:35:41.413Z,7.20
2024-03-06T08:38:10.363Z,7.20
2024-03-06T08:40:56.923Z,7.20
2024-03-06T08:43:25.675Z,7.30
2024-03-06T08:45:54.202Z,7.30
2024-03-06T08:48:24.036Z,7.30
2024-03-06T08:50:53.273Z,7.30
2024-03-06T08:53:22.470Z,7.40
2024-03-06T08:55:51.768Z,7.40
2024-03-06T08:58:22.030Z,7.50
2024-03-06T09:00:51.179Z,7.60
2024-03-06T09:06:09.299Z,7.70
2024-03-06T09:08:44.585Z,7.80
2024-03-06T09:11:13.031Z,7.90
2024-03-06T09:13:41.941Z,7.90
2024-03-06T09:16:35.588Z,8.00
2024-03-06T09:19:07.529Z,8.10
2024-03-06T09:21:39.208Z,8.20
2024-03-06T09:24:11.486Z,8.30
2024-03-06T09:26:40.013Z,8.30
2024-03-06T09:29:08.673Z,8.50
2024-03-06T09:31:37.079Z,8.50
2024-03-06T09:34:24.053Z,8.60
2024-03-06T09:36:53.651Z,8.70
2024-03-06T09:42:25.656Z,9.00
2024-03-06T09:44:54.454Z,9.10
2024-03-06T09:47:27.326Z,9.20
2024-03-06T09:49:56.186Z,9.30
2024-03-06T09:52:49.297Z,9.40
2024-03-06T09:55:19.232Z,9.50
2024-03-06T09:57:51.001Z,9.50
2024-03-06T10:00:31.806Z,9.60
2024-03-06T10:03:02.363Z,9.70
2024-03-06T10:05:32.626Z,9.80
2024-03-06T10:08:01.765Z,9.90
2024-03-06T10:10:30.123Z,10.00
2024-03-06T10:13:03.680Z,10.00
2024-03-06T10:15:32.353Z,10.20
2024-03-06T10:18:19.031Z,10.20
2024-03-06T10:20:47.630Z,10.40
2024-03-06T10:23:17.352Z,10.50
2024-03-06T10:25:49.076Z,10.50
2024-03-06T10:28:17.537Z,10.60
2024-03-06T10:30:46.617Z,10.70
2024-03-06T10:33:17.555Z,10.70
2024-03-06T10:35:50.476Z,10.80
2024-03-06T10:38:22.224Z,10.90
2024-03-06T10:40:54.674Z,10.90
2024-03-06T10:43:25.318Z,10.90
2024-03-06T10:46:06.893Z,10.90
2024-03-06T10:48:37.275Z,11.00
2024-03-06T10:51:08.864Z,11.00
2024-03-06T10:53:40.131Z,11.10
2024-03-06T10:56:11.801Z,11.10
2024-03-06T10:58:43.944Z,11.10
2024-03-06T11:01:12.579Z,11.20
2024-03-06T11:03:40.998Z,11.30
2024-03-06T11:06:09.675Z,11.40
2024-03-06T11:08:38.992Z,11.50
2024-03-06T11:11:27.147Z,11.50
2024-03-06T11:14:06.320Z,11.50
2024-03-06T11:17:01.257Z,11.60
2024-03-06T11:19:30.186Z,11.60
2024-03-06T11:21:59.262Z,11.70
2024-03-06T11:24:36.262Z,11.70
2024-03-06T11:27:10.150Z,11.80
2024-03-06T11:30:16.241Z,11.80
2024-03-06T11:33:04.362Z,11.90
2024-03-06T11:35:33.290Z,12.00
2024-03-06T11:38:02.609Z,12.00
2024-03-06T11:40:31.722Z,11.90
2024-03-06T11:43:29.988Z,11.90
2024-03-06T11:46:14.563Z,11.90
2024-03-06T11:48:43.232Z,11.80
2024-03-06T11:51:11.963Z,11.80
2024-03-06T11:53:42.554Z,11.90
2024-03-06T11:56:11.017Z,11.90
2024-03-06T11:58:40.241Z,12.10
2024-03-06T12:01:09.021Z,12.40
2024-03-06T12:03:37.470Z,12.70
2024-03-06T12:06:06.295Z,13.10
2024-03-06T12:08:39.200Z,13.50
2024-03-06T12:11:08.000Z,13.80
2024-03-06T12:13:37.797Z,14.20
2024-03-06T12:16:09.967Z,14.50
2024-03-06T12:18:38.866Z,14.70
2024-03-06T12:21:08.157Z,14.70
2024-03-06T12:23:36.569Z,14.80
2024-03-06T12:26:12.377Z,14.80
2024-03-06T12:28:41.830Z,14.90
2024-03-06T12:31:10.442Z,15.00
2024-03-06T12:33:39.060Z,15.20
2024-03-06T12:36:12.581Z,15.30
2024-03-06T12:38:41.826Z,15.50
2024-03-06T12:41:10.247Z,15.60
2024-03-06T12:43:38.674Z,15.80
2024-03-06T12:46:07.366Z,16.00
2024-03-06T12:48:35.824Z,16.20
2024-03-06T12:51:07.083Z,16.40
2024-03-06T12:53:37.404Z,16.50
2024-03-06T12:56:07.332Z,16.60
2024-03-06T12:58:37.572Z,16.80
2024-03-06T13:01:07.110Z,16.90
2024-03-06T13:03:35.658Z,17.10
2024-03-06T13:06:04.794Z,17.20
2024-03-06T13:08:35.997Z,17.40
2024-03-06T13:11:05.439Z,17.50
2024-03-06T13:13:36.091Z,17.70
2024-03-06T13:16:06.887Z,17.90
2024-03-06T13:18:36.588Z,18.00
2024-03-06T13:21:05.349Z,18.20
2024-03-06T13:23:33.694Z,18.40
2024-03-06T13:26:02.827Z,18.50
2024-03-06T13:28:31.293Z,18.50
2024-03-06T13:30:59.842Z,18.60
2024-03-06T13:33:30.165Z,18.60
2024-03-06T13:35:58.996Z,18.70
2024-03-06T13:38:27.953Z,18.80
2024-03-06T13:40:56.394Z,19.00
2024-03-06T13:43:26.018Z,19.00
2024-03-06T13:45:54.745Z,19.00
2024-03-06T13:48:24.654Z,18.90
2024-03-06T13:50:53.076Z,18.70
2024-03-06T13:53:21.571Z,18.50
2024-03-06T13:55:49.955Z,18.30
2024-03-06T13:58:18.397Z,18.10
2024-03-06T14:00:46.803Z,17.80
2024-03-06T14:03:15.236Z,17.60
2024-03-06T14:05:43.678Z,17.30
2024-03-06T14:08:14.250Z,17.00
2024-03-06T14:10:42.769Z,16.80
2024-03-06T14:13:11.216Z,16.60
2024-03-06T14:15:39.664Z,16.40
2024-03-06T14:18:08.995Z,16.00
2024-03-06T14:20:37.468Z,15.80
2024-03-06T14:23:06.033Z,15.60
2024-03-06T14:25:37.310Z,15.40
2024-03-06T14:28:06.329Z,15.20
2024-03-06T14:30:34.687Z,15.00
2024-03-06T14:33:03.137Z,14.80
2024-03-06T14:35:31.614Z,14.80
2024-03-06T14:38:00.047Z,14.60
2024-03-06T14:40:28.433Z,14.50
2024-03-06T14:42:57.470Z,14.40
2024-03-06T14:45:25.837Z,14.30
2024-03-06T14:47:54.730Z,14.30
2024-03-06T14:50:32.466Z,14.20
2024-03-06T14:53:01.162Z,14.10
2024-03-06T14:55:30.085Z,14.00
2024-03-06T14:57:58.432Z,13.90
2024-03-06T15:00:26.759Z,13.80
2024-03-06T15:02:55.490Z,13.80
2024-03-06T15:05:23.931Z,13.70
2024-03-06T15:07:52.318Z,13.70
2024-03-06T15:10:20.762Z,13.60
2024-03-06T15:12:49.662Z,13.60
2024-03-06T15:15:18.202Z,13.60
2024-03-06T15:17:48.931Z,13.60
2024-03-06T15:20:17.507Z,13.60
2024-03-06T15:22:46.675Z,13.50
2024-03-06T15:25:16.159Z,13.40
2024-03-06T15:27:44.488Z,13.40
2024-03-06T15:30:13.616Z,13.40
2024-03-06T15:32:42.191Z,13.30
2024-03-06T15:35:11.210Z,13.30
2024-03-06T15:37:40.110Z,13.30
2024-03-06T15:40:12.072Z,13.30
2024-03-06T15:42:40.585Z,13.30
2024-03-06T15:45:09.443Z,13.20
2024-03-06T15:47:39.605Z,13.20
2024-03-06T15:50:13.208Z,13.10
2024-03-06T15:52:42.026Z,13.10
2024-03-06T15:55:12.051Z,13.00
2024-03-06T15:57:41.674Z,13.00
2024-03-06T16:00:11.960Z,13.00
2024-03-06T16:02:41.037Z,12.90
2024-03-06T16:05:10.772Z,12.90
2024-03-06T16:07:44.552Z,12.90
2024-03-06T16:10:20.024Z,12.80
2024-03-06T16:12:48.540Z,12.80
2024-03-06T16:15:18.101Z,12.70
2024-03-06T16:17:48.418Z,12.70
2024-03-06T16:20:16.932Z,12.60
2024-03-06T16:22:45.331Z,12.60
2024-03-06T16:25:13.673Z,12.50
2024-03-06T16:27:42.033Z,12.50
2024-03-06T16:30:11.817Z,12.40
2024-03-06T16:32:40.656Z,12.40
2024-03-06T16:35:11.174Z,12.40
2024-03-06T16:37:39.580Z,12.30
2024-03-06T16:40:09.562Z,12.30
2024-03-06T16:42:38.055Z,12.30
2024-03-06T16:45:07.326Z,12.20
2024-03-06T16:47:35.724Z,12.20
2024-03-06T16:50:04.579Z,12.10
2024-03-06T16:52:33.265Z,12.10
2024-03-06T16:55:01.752Z,12.00
2024-03-06T16:57:30.150Z,11.90
2024-03-06T16:59:58.539Z,11.90
2024-03-06T17:02:26.987Z,11.90
2024-03-06T17:04:55.359Z,11.80
2024-03-06T17:07:23.720Z,11.80
2024-03-06T17:09:52.105Z,11.70
2024-03-06T17:12:20.484Z,11.70
2024-03-06T17:14:49.792Z,11.70
2024-03-06T17:17:18.182Z,11.60
2024-03-06T17:19:47.651Z,11.50
2024-03-06T17:22:16.035Z,11.50
2024-03-06T17:24:44.514Z,11.40
2024-03-06T17:27:13.251Z,11.40
2024-03-06T17:29:41.704Z,11.30
2024-03-06T17:32:11.816Z,11.30
2024-03-06T17:34:40.252Z,11.20
2024-03-06T17:37:09.503Z,11.20
2024-03-06T17:39:37.947Z,11.20
2024-03-06T17:42:06.764Z,11.20
2024-03-06T17:44:35.255Z,11.10
2024-03-06T17:47:03.922Z,11.10
2024-03-06T17:49:32.754Z,11.00
2024-03-06T17:52:01.076Z,11.00
2024-03-06T17:54:29.516Z,10.90
2024-03-06T17:57:00.904Z,10.80
2024-03-06T17:59:29.277Z,10.80
2024-03-06T18:01:57.698Z,10.70
2024-03-06T18:04:26.606Z,10.60
2024-03-06T18:06:55.373Z,10.60
2024-03-06T18:09:23.714Z,10.50
2024-03-06T18:11:52.831Z,10.40
2024-03-06T18:14:21.367Z,10.40
2024-03-06T18:16:50.129Z,10.30
2024-03-06T18:19:18.950Z,10.30
2024-03-06T18:21:48.437Z,10.30
2024-03-06T18:24:17.237Z,10.20
2024-03-06T18:26:49.028Z,10.20
2024-03-06T18:29:17.747Z,10.20
2024-03-06T18:31:46.468Z,10.10
2024-03-06T18:34:15.631Z,10.10
2024-03-06T18:36:44.000Z,10.00
2024-03-06T18:39:12.898Z,10.00
2024-03-06T18:41:41.347Z,10.00
2024-03-06T18:44:10.110Z,9.90
2024-03-06T18:46:41.114Z,9.90
2024-03-06T18:49:09.910Z,9.90
2024-03-06T18:51:38.268Z,9.80
2024-03-06T18:54:06.786Z,9.80
2024-03-06T18:56:36.959Z,9.70
2024-03-06T18:59:05.437Z,9.70
2024-03-06T19:01:33.905Z,9.60
2024-03-06T19:04:02.263Z,9.60
2024-03-06T19:06:30.586Z,9.60
2024-03-06T19:08:59.211Z,9.50
2024-03-06T19:11:27.701Z,9.50
2024-03-06T19:13:56.094Z,9.50
2024-03-06T19:16:25.264Z,9.40
2024-03-06T19:18:53.590Z,9.40
2024-03-06T19:21:22.722Z,9.30
2024-03-06T19:23:51.086Z,9.30
2024-03-06T19:26:19.798Z,9.30
2024-03-06T19:28:48.192Z,9.20
2024-03-06T19:31:16.583Z,9.20
2024-03-06T19:33:45.058Z,9.20
2024-03-06T19:36:13.495Z,9.20
2024-03-06T19:38:41.920Z,9.10
2024-03-06T19:41:10.309Z,9.10
2024-03-06T19:43:40.385Z,9.10
2024-03-06T19:46:09.098Z,9.10
2024-03-06T19:48:37.479Z,9.00
2024-03-06T19:51:06.740Z,9.00
2024-03-06T19:53:39.689Z,9.00
2024-03-06T19:56:08.637Z,9.00
2024-03-06T19:58:37.006Z,9.00
2024-03-06T20:01:05.544Z,9.00
2024-03-06T20:03:33.972Z,8.90
2024-03-06T20:06:03.477Z,8.90
2024-03-06T20:08:32.124Z,8.90
2024-03-06T20:11:00.617Z,8.90
2024-03-06T20:13:29.016Z,8.80
2024-03-06T20:15:58.600Z,8.80
2024-03-06T20:18:26.972Z,8.80
2024-03-06T20:20:55.326Z,8.70
2024-03-06T20:23:23.748Z,8.70
2024-03-06T20:25:54.138Z,8.60
2024-03-06T20:28:23.912Z,8.60
2024-03-06T20:30:54.619Z,8.50
2024-03-06T20:33:23.019Z,8.40
2024-03-06T20:35:51.516Z,8.30
2024-03-06T20:38:22.101Z,8.30
2024-03-06T20:40:52.317Z,8.20
2024-03-06T20:43:23.909Z,8.20
2024-03-06T20:45:53.791Z,8.10
2024-03-06T20:48:22.195Z,8.10
2024-03-06T20:50:51.403Z,8.00
2024-03-06T20:53:19.819Z,8.00
2024-03-06T20:55:49.404Z,8.00
2024-03-06T20:58:19.053Z,7.90
2024-03-06T21:00:48.214Z,7.80
2024-03-06T21:03:16.875Z,7.80
2024-03-06T21:05:45.904Z,7.70
2024-03-06T21:08:14.501Z,7.70
2024-03-06T21:10:43.144Z,7.70
2024-03-06T21:13:12.469Z,7.60
2024-03-06T21:15:40.801Z,7.60
2024-03-06T21:18:10.706Z,7.60
2024-03-06T21:20:39.159Z,7.60
2024-03-06T21:23:08.480Z,7.60
2024-03-06T21:25:36.880Z,7.50
2024-03-06T21:28:05.462Z,7.50
2024-03-06T21:30:33.890Z,7.50
2024-03-06T21:33:02.704Z,7.40
2024-03-06T21:35:31.185Z,7.50
2024-03-06T21:37:59.535Z,7.40
2024-03-06T21:40:27.881Z,7.40
2024-03-06T21:42:56.203Z,7.40
2024-03-06T21:45:25.737Z,7.30
2024-03-06T21:47:54.172Z,7.30
2024-03-06T21:50:22.788Z,7.30
2024-03-06T21:52:51.116Z,7.20
2024-03-06T21:55:19.467Z,7.30
2024-03-06T21:57:48.662Z,7.20
2024-03-06T22:00:17.890Z,7.20
2024-03-06T22:02:46.474Z,7.20
2024-03-06T22:05:15.847Z,7.10
2024-03-06T22:07:45.663Z,7.20
2024-03-06T22:10:14.503Z,7.10
2024-03-06T22:12:42.835Z,7.20
2024-03-06T22:15:11.685Z,7.20
2024-03-06T22:17:40.089Z,7.10
2024-03-06T22:20:09.493Z,7.10
2024-03-06T22:22:38.255Z,7.10
2024-03-06T22:25:07.469Z,7.00
2024-03-06T22:27:35.820Z,7.00
2024-03-06T22:30:04.189Z,7.00
2024-03-06T22:32:32.710Z,7.00
2024-03-06T22:35:01.598Z,7.00
2024-03-06T22:37:29.982Z,7.00
2024-03-06T22:39:58.305Z,7.00
2024-03-06T22:42:26.666Z,6.90
2024-03-06T22:44:55.025Z,6.90
2024-03-06T22:47:23.951Z,6.90
2024-03-06T22:49:52.394Z,6.90
2024-03-06T22:52:21.280Z,6.90
2024-03-06T22:54:49.645Z,6.90
2024-03-06T22:57:17.998Z,6.90
2024-03-06T22:59:46.405Z,6.90
2024-03-06T23:02:14.862Z,6.90
2024-03-06T23:04:43.837Z,6.90
2024-03-06T23:07:12.296Z,6.90
2024-03-06T23:09:40.796Z,6.90
2024-03-06T23:12:09.358Z,6.90
2024-03-06T23:14:38.639Z,6.80
2024-03-06T23:17:07.823Z,6.80
2024-03-06T23:19:36.291Z,6.80
2024-03-06T23:22:05.132Z,6.70
2024-03-06T23:24:34.127Z,6.70
2024-03-06T23:27:02.558Z,6.60
2024-03-06T23:29:30.953Z,6.60
2024-03-06T23:31:59.501Z,6.60
2024-03-06T23:34:27.899Z,6.50
2024-03-06T23:36:56.378Z,6.50
2024-03-06T23:39:24.705Z,6.50
2024-03-06T23:41:53.095Z,6.50
2024-03-06T23:44:21.948Z,6.50
2024-03-06T23:46:50.353Z,6.50
2024-03-06T23:49:19.145Z,6.50
2024-03-06T23:51:48.915Z,6.50
2024-03-06T23:54:19.002Z,6.50
2024-03-06T23:56:47.747Z,6.50
2024-03-06T23:59:16.203Z,6.50
